createdAt,value
2018-05-06T00:01:58.928Z,69.30
2018-05-06T00:04:26.382Z,69.20
2018-05-06T00:06:53.856Z,68.40
2018-05-06T00:09:22.085Z,67.50
2018-05-06T00:11:49.540Z,67.10
2018-05-06T00:14:17.802Z,63.40
2018-05-06T00:16:45.256Z,63.30
2018-05-06T00:19:12.720Z,64.90
2018-05-06T00:21:40.178Z,64.00
2018-05-06T00:24:07.636Z,63.30
2018-05-06T00:26:35.100Z,64.50
2018-05-06T00:29:02.560Z,63.30
2018-05-06T00:31:30.021Z,64.40
2018-05-06T00:33:57.516Z,64.00
2018-05-06T00:36:24.989Z,63.30
2018-05-06T00:38:52.463Z,63.80
2018-05-06T00:41:19.925Z,62.50
2018-05-06T00:43:47.393Z,62.80
2018-05-06T00:46:15.653Z,61.20
2018-05-06T00:48:43.118Z,61.00
2018-05-06T00:51:10.573Z,61.20
2018-05-06T00:53:38.820Z,61.20
2018-05-06T00:56:06.273Z,61.20
2018-05-06T00:58:33.796Z,61.40
2018-05-06T01:01:01.256Z,61.40
2018-05-06T01:03:28.724Z,62.90
2018-05-06T01:05:56.190Z,63.50
2018-05-06T01:08:24.413Z,64.50
2018-05-06T01:10:51.919Z,64.40
2018-05-06T01:13:19.395Z,66.00
2018-05-06T01:15:46.855Z,65.70
2018-05-06T01:18:14.369Z,67.10
2018-05-06T01:20:41.829Z,68.30
2018-05-06T01:23:09.286Z,69.10
2018-05-06T01:25:37.508Z,70.90
2018-05-06T01:28:04.972Z,70.90
2018-05-06T01:30:32.426Z,72.80
2018-05-06T01:32:59.881Z,73.40
2018-05-06T01:35:27.351Z,72.90
2018-05-06T01:37:54.839Z,73.10
2018-05-06T01:40:22.328Z,73.90
2018-05-06T01:42:49.780Z,74.00
2018-05-06T01:45:17.240Z,74.60
2018-05-06T01:47:44.693Z,74.90
2018-05-06T01:50:12.257Z,74.50
2018-05-06T01:52:39.712Z,75.70
2018-05-06T01:55:07.179Z,76.30
2018-05-06T01:57:35.393Z,78.30
2018-05-06T02:00:03.628Z,78.50
2018-05-06T02:02:31.123Z,78.50
2018-05-06T02:04:58.623Z,78.80
2018-05-06T02:07:26.102Z,78.30
2018-05-06T02:09:53.565Z,79.40
2018-05-06T02:12:21.013Z,79.50
2018-05-06T02:14:50.056Z,79.60
2018-05-06T02:17:17.568Z,79.40
2018-05-06T02:19:45.062Z,80.30
2018-05-06T02:22:12.523Z,80.00
2018-05-06T02:24:40.029Z,79.30
2018-05-06T02:27:07.484Z,80.10
2018-05-06T02:29:35.700Z,81.30
2018-05-06T02:32:03.162Z,81.40
2018-05-06T02:34:30.708Z,82.60
2018-05-06T02:36:58.165Z,82.50
2018-05-06T02:39:25.630Z,84.40
2018-05-06T02:41:53.848Z,86.10
2018-05-06T02:44:21.324Z,86.10
2018-05-06T02:46:48.839Z,87.20
2018-05-06T02:49:16.292Z,88.10
2018-05-06T02:51:43.748Z,88.60
2018-05-06T02:54:11.296Z,89.50
2018-05-06T02:56:38.755Z,89.50
2018-05-06T02:59:06.210Z,89.50
2018-05-06T03:01:34.432Z,89.60
2018-05-06T03:04:01.953Z,89.50
2018-05-06T03:06:29.404Z,90.00
2018-05-06T03:08:56.870Z,90.10
2018-05-06T03:11:25.128Z,90.30
2018-05-06T03:13:52.588Z,90.20
2018-05-06T03:16:20.049Z,90.20
2018-05-06T03:18:48.270Z,90.40
2018-05-06T03:21:15.732Z,90.40
2018-05-06T03:23:43.189Z,90.70
2018-05-06T03:26:10.661Z,90.60
2018-05-06T03:28:38.124Z,90.50
2018-05-06T03:31:05.609Z,90.60
2018-05-06T03:33:33.192Z,90.40
2018-05-06T03:36:00.648Z,90.60
2018-05-06T03:38:28.164Z,90.60
2018-05-06T03:40:55.616Z,90.70
2018-05-06T03:43:23.841Z,90.80
2018-05-06T03:45:51.406Z,90.70
2018-05-06T03:48:18.835Z,91.30
2018-05-06T03:50:46.286Z,91.10
2018-05-06T03:53:13.741Z,91.50
2018-05-06T03:55:41.960Z,90.80
2018-05-06T03:58:21.303Z,90.80
2018-05-06T04:00:49.516Z,90.40
2018-05-06T04:03:16.972Z,90.30
2018-05-06T04:05:45.244Z,90.10
2018-05-06T04:08:12.724Z,90.60
2018-05-06T04:10:41.000Z,90.50
2018-05-06T04:13:08.471Z,90.60
2018-05-06T04:15:35.926Z,91.00
2018-05-06T04:18:04.200Z,91.10
2018-05-06T04:20:31.671Z,91.10
2018-05-06T04:22:59.156Z,91.20
2018-05-06T04:25:26.605Z,91.10
2018-05-06T04:27:54.067Z,90.70
2018-05-06T04:30:22.292Z,90.60
2018-05-06T04:32:50.519Z,91.20
2018-05-06T04:35:17.973Z,91.20
2018-05-06T04:37:46.227Z,91.30
2018-05-06T04:40:13.689Z,91.30
2018-05-06T04:42:41.216Z,91.30
2018-05-06T04:45:08.705Z,91.50
2018-05-06T04:47:36.201Z,91.40
2018-05-06T04:50:03.655Z,89.90
2018-05-06T04:52:31.104Z,90.40
2018-05-06T04:54:58.556Z,90.50
2018-05-06T04:57:26.812Z,90.00
2018-05-06T04:59:54.268Z,90.00
2018-05-06T05:02:21.721Z,90.00
2018-05-06T05:04:49.937Z,88.20
2018-05-06T05:07:17.393Z,88.10
2018-05-06T05:09:44.953Z,85.60
2018-05-06T05:12:12.439Z,83.00
2018-05-06T05:14:39.908Z,80.60
2018-05-06T05:17:07.408Z,77.40
2018-05-06T05:19:34.889Z,77.40
2018-05-06T05:22:02.372Z,77.80
2018-05-06T05:24:29.853Z,78.10
2018-05-06T05:26:57.332Z,76.30
2018-05-06T05:29:24.801Z,75.30
2018-05-06T05:31:52.356Z,75.10
2018-05-06T05:34:20.616Z,70.90
2018-05-06T05:36:48.046Z,70.90
2018-05-06T05:39:15.572Z,72.50
2018-05-06T05:41:43.058Z,68.40
2018-05-06T05:44:10.546Z,68.40
2018-05-06T05:46:38.009Z,65.90
2018-05-06T05:49:05.475Z,66.20
2018-05-06T05:51:32.988Z,65.50
2018-05-06T05:54:00.449Z,64.50
2018-05-06T05:56:27.928Z,66.90
2018-05-06T05:58:55.384Z,62.70
2018-05-06T06:01:23.659Z,66.80
2018-05-06T06:03:51.156Z,66.80
2018-05-06T06:06:19.380Z,64.30
2018-05-06T06:08:46.837Z,64.20
2018-05-06T06:11:14.388Z,63.80
2018-05-06T06:13:41.848Z,61.70
2018-05-06T06:16:09.309Z,62.90
2018-05-06T06:18:36.766Z,61.00
2018-05-06T06:21:04.223Z,59.70
2018-05-06T06:23:31.676Z,59.40
2018-05-06T06:25:59.195Z,60.80
2018-05-06T06:28:26.669Z,58.60
2018-05-06T06:30:54.133Z,58.70
2018-05-06T06:33:21.588Z,56.60
2018-05-06T06:35:49.814Z,57.60
2018-05-06T06:38:17.403Z,57.70
2018-05-06T06:40:44.812Z,57.50
2018-05-06T06:43:12.272Z,57.60
2018-05-06T06:45:39.726Z,58.00
2018-05-06T06:48:07.988Z,58.60
2018-05-06T06:50:36.283Z,58.60
2018-05-06T06:53:03.781Z,57.70
2018-05-06T06:55:31.240Z,56.70
2018-05-06T06:57:58.708Z,56.40
2018-05-06T07:00:26.167Z,55.70
2018-05-06T07:02:53.627Z,54.90
2018-05-06T07:05:21.082Z,54.40
2018-05-06T07:07:48.545Z,54.00
2018-05-06T07:10:15.995Z,51.90
2018-05-06T07:12:43.460Z,52.50
2018-05-06T07:15:10.928Z,52.70
2018-05-06T07:17:38.381Z,50.90
2018-05-06T07:20:06.608Z,48.70
2018-05-06T07:22:34.129Z,48.50
2018-05-06T07:25:01.620Z,48.00
2018-05-06T07:27:29.078Z,43.50
2018-05-06T07:29:56.620Z,39.00
2018-05-06T07:32:24.018Z,35.20
2018-05-06T07:34:51.473Z,33.30
2018-05-06T07:37:19.000Z,28.80
2018-05-06T07:39:46.465Z,28.10
2018-05-06T07:42:13.922Z,27.30
2018-05-06T07:44:41.444Z,25.10
2018-05-06T07:47:08.933Z,22.00
2018-05-06T07:49:36.433Z,21.90
2018-05-06T07:52:03.896Z,21.00
2018-05-06T07:54:31.362Z,20.30
2018-05-06T07:56:58.873Z,20.80
2018-05-06T07:59:26.379Z,20.30
2018-05-06T08:01:53.850Z,20.40
2018-05-06T08:04:21.316Z,19.80
2018-05-06T08:06:48.809Z,18.40
2018-05-06T08:09:16.322Z,18.10
2018-05-06T08:11:43.793Z,17.10
2018-05-06T08:14:11.266Z,16.30
2018-05-06T08:16:38.816Z,16.30
2018-05-06T08:19:07.061Z,17.40
2018-05-06T08:21:34.535Z,17.10
2018-05-06T08:24:02.005Z,17.10
2018-05-06T08:26:30.248Z,17.60
2018-05-06T08:28:57.736Z,17.50
2018-05-06T08:31:25.216Z,17.10
2018-05-06T08:33:52.693Z,16.50
2018-05-06T08:36:20.186Z,17.00
2018-05-06T08:38:47.649Z,16.60
2018-05-06T08:41:15.153Z,17.60
2018-05-06T08:43:42.638Z,18.80
2018-05-06T08:46:10.125Z,18.20
2018-05-06T08:48:37.640Z,18.80
2018-05-06T08:51:05.881Z,16.50
2018-05-06T08:53:33.345Z,16.40
2018-05-06T08:56:01.593Z,15.80
2018-05-06T08:58:29.057Z,15.80
2018-05-06T09:00:56.524Z,16.30
2018-05-06T09:03:24.052Z,16.00
2018-05-06T09:05:51.515Z,15.00
2018-05-06T09:08:18.973Z,14.70
2018-05-06T09:10:46.429Z,14.50
2018-05-06T09:13:14.659Z,14.60
2018-05-06T09:15:42.188Z,14.40
2018-05-06T09:18:09.650Z,14.30
2018-05-06T09:20:37.809Z,13.70
2018-05-06T09:23:05.376Z,13.60
2018-05-06T09:25:32.931Z,15.70
2018-05-06T09:28:00.440Z,15.40
2018-05-06T09:30:27.906Z,15.60
2018-05-06T09:32:55.377Z,14.80
2018-05-06T09:35:23.621Z,15.50
2018-05-06T09:37:51.089Z,15.40
2018-05-06T09:40:18.549Z,15.40
2018-05-06T09:42:46.016Z,16.20
2018-05-06T09:45:13.542Z,14.90
2018-05-06T09:47:41.169Z,15.00
2018-05-06T09:50:08.603Z,16.10
2018-05-06T09:52:36.104Z,15.30
2018-05-06T09:55:03.584Z,14.50
2018-05-06T09:57:31.252Z,14.50
2018-05-06T09:59:58.713Z,15.60
2018-05-06T10:02:26.181Z,14.80
2018-05-06T10:04:53.641Z,14.90
2018-05-06T10:07:21.880Z,14.10
2018-05-06T10:09:49.380Z,14.00
2018-05-06T10:12:16.872Z,13.60
2018-05-06T10:14:44.377Z,14.70
2018-05-06T10:17:11.848Z,14.20
2018-05-06T10:19:39.305Z,16.10
2018-05-06T10:22:06.761Z,14.50
2018-05-06T10:24:35.017Z,14.60
2018-05-06T10:27:02.477Z,14.70
2018-05-06T10:29:30.713Z,14.50
2018-05-06T10:31:58.217Z,14.50
2018-05-06T10:34:25.688Z,15.60
2018-05-06T10:36:53.210Z,14.90
2018-05-06T10:39:20.670Z,14.90
2018-05-06T10:41:48.140Z,15.70
2018-05-06T10:44:15.724Z,15.40
2018-05-06T10:46:43.112Z,16.20
2018-05-06T10:49:11.406Z,17.20
2018-05-06T10:51:38.823Z,17.20
2018-05-06T10:54:06.308Z,17.10
2018-05-06T10:56:33.776Z,16.20
2018-05-06T10:59:02.025Z,16.20
2018-05-06T11:01:29.584Z,16.10
2018-05-06T11:03:57.158Z,16.40
2018-05-06T11:06:24.549Z,16.40
2018-05-06T11:08:52.018Z,15.20
2018-05-06T11:11:20.464Z,16.60
2018-05-06T11:13:47.920Z,15.10
2018-05-06T11:16:15.385Z,18.00
2018-05-06T11:18:42.852Z,17.90
2018-05-06T11:21:11.089Z,17.90
2018-05-06T11:23:38.541Z,17.80
2018-05-06T11:26:06.017Z,17.70
2018-05-06T11:28:34.240Z,19.00
2018-05-06T11:31:01.716Z,18.90
2018-05-06T11:33:29.327Z,18.60
2018-05-06T11:35:56.709Z,19.40
2018-05-06T11:38:24.288Z,18.90
2018-05-06T11:40:51.781Z,18.00
2018-05-06T11:43:19.243Z,18.80
2018-05-06T11:45:46.716Z,20.20
2018-05-06T11:48:14.168Z,21.60
2018-05-06T11:50:41.634Z,20.80
2018-05-06T11:53:09.137Z,19.90
2018-05-06T11:55:36.608Z,22.60
2018-05-06T11:58:04.100Z,21.50
2018-05-06T12:00:31.588Z,19.90
2018-05-06T12:02:59.054Z,19.40
2018-05-06T12:05:26.514Z,19.90
2018-05-06T12:07:53.978Z,19.10
2018-05-06T12:10:22.206Z,19.50
2018-05-06T12:12:49.665Z,19.20
2018-05-06T12:15:17.888Z,19.50
2018-05-06T12:17:45.408Z,19.50
2018-05-06T12:20:12.875Z,19.80
2018-05-06T12:22:41.133Z,19.90
2018-05-06T12:25:08.697Z,19.90
2018-05-06T12:27:37.028Z,19.20
2018-05-06T12:30:04.512Z,19.10
2018-05-06T12:32:32.001Z,18.70
2018-05-06T12:34:59.504Z,19.40
2018-05-06T12:37:26.978Z,19.50
2018-05-06T12:39:54.446Z,19.80
2018-05-06T12:42:21.912Z,21.80
2018-05-06T12:44:50.210Z,20.30
2018-05-06T12:47:17.677Z,20.30
2018-05-06T12:49:45.142Z,20.40
2018-05-06T12:52:12.636Z,21.20
2018-05-06T12:54:40.243Z,21.70
2018-05-06T12:57:07.644Z,21.80
2018-05-06T12:59:35.880Z,20.10
2018-05-06T13:02:03.336Z,20.10
2018-05-06T13:04:30.795Z,20.50
2018-05-06T13:06:58.316Z,20.80
2018-05-06T13:09:25.777Z,20.70
2018-05-06T13:11:54.008Z,20.80
2018-05-06T13:14:21.484Z,20.80
2018-05-06T13:16:48.947Z,21.40
2018-05-06T13:19:16.471Z,21.50
2018-05-06T13:21:43.927Z,21.80
2018-05-06T13:24:11.427Z,20.50
2018-05-06T13:26:38.869Z,21.50
2018-05-06T13:29:06.343Z,22.10
2018-05-06T13:31:34.576Z,21.70
2018-05-06T13:34:02.040Z,21.60
2018-05-06T13:36:29.578Z,23.10
2018-05-06T13:38:57.062Z,23.80
2018-05-06T13:41:24.524Z,22.80
2018-05-06T13:43:52.805Z,22.90
2018-05-06T13:46:21.015Z,22.60
2018-05-06T13:48:48.489Z,22.60
2018-05-06T13:51:16.717Z,22.20
2018-05-06T13:53:44.197Z,22.10
2018-05-06T13:56:11.704Z,23.10
2018-05-06T13:58:39.188Z,24.00
2018-05-06T14:01:06.644Z,24.50
2018-05-06T14:03:34.107Z,24.50
2018-05-06T14:06:02.337Z,23.70
2018-05-06T14:08:29.852Z,23.60
2018-05-06T14:10:57.332Z,23.70
2018-05-06T14:13:24.793Z,24.20
2018-05-06T14:15:52.354Z,23.20
2018-05-06T14:18:19.730Z,22.80
2018-05-06T14:20:47.956Z,23.80
2018-05-06T14:23:15.422Z,23.70
2018-05-06T14:25:42.891Z,23.10
2018-05-06T14:28:10.464Z,24.00
2018-05-06T14:30:38.712Z,23.10
2018-05-06T14:33:06.172Z,23.10
2018-05-06T14:35:33.692Z,23.70
2018-05-06T14:38:01.176Z,24.80
2018-05-06T14:40:28.636Z,24.50
2018-05-06T14:42:56.135Z,24.90
2018-05-06T14:45:23.622Z,26.70
2018-05-06T14:48:03.068Z,27.90
2018-05-06T14:50:30.525Z,27.10
2018-05-06T14:52:58.778Z,27.00
2018-05-06T14:55:26.284Z,27.00
2018-05-06T14:57:53.741Z,28.00
2018-05-06T15:00:21.270Z,27.90
2018-05-06T15:02:48.745Z,28.90
2018-05-06T15:05:16.229Z,27.70
2018-05-06T15:07:43.700Z,28.20
2018-05-06T15:10:11.156Z,29.10
2018-05-06T15:12:39.394Z,29.90
2018-05-06T15:15:06.861Z,29.90
2018-05-06T15:17:34.352Z,29.90
2018-05-06T15:20:01.808Z,30.50
2018-05-06T15:22:30.067Z,30.30
2018-05-06T15:24:57.505Z,30.10
2018-05-06T15:27:24.965Z,29.80
2018-05-06T15:29:53.197Z,30.30
2018-05-06T15:32:20.652Z,30.20
2018-05-06T15:34:48.882Z,31.50
2018-05-06T15:37:17.104Z,31.80
2018-05-06T15:39:44.557Z,31.10
2018-05-06T15:42:12.784Z,31.80
2018-05-06T15:44:40.245Z,31.70
2018-05-06T15:47:07.778Z,31.20
2018-05-06T15:49:35.231Z,32.40
2018-05-06T15:52:02.698Z,32.10
2018-05-06T15:54:30.217Z,32.00
2018-05-06T15:56:57.677Z,32.80
2018-05-06T15:59:25.912Z,33.60
2018-05-06T16:02:05.352Z,33.60
2018-05-06T16:04:32.829Z,33.30
2018-05-06T16:07:00.354Z,33.20
2018-05-06T16:09:27.840Z,33.20
2018-05-06T16:11:55.392Z,33.20
2018-05-06T16:14:22.822Z,34.50
2018-05-06T16:16:50.277Z,33.70
2018-05-06T16:19:17.750Z,33.40
2018-05-06T16:21:45.972Z,33.80
2018-05-06T16:24:13.486Z,33.80
2018-05-06T16:26:41.048Z,33.30
2018-05-06T16:29:08.477Z,33.40
2018-05-06T16:31:35.961Z,33.60
2018-05-06T16:34:03.426Z,33.90
2018-05-06T16:36:30.884Z,34.90
2018-05-06T16:38:58.410Z,35.70
2018-05-06T16:41:29.955Z,35.50
2018-05-06T16:43:58.202Z,36.10
2018-05-06T16:46:25.670Z,36.00
2018-05-06T16:48:53.180Z,35.80
2018-05-06T16:51:20.644Z,36.10
2018-05-06T16:53:48.883Z,36.50
2018-05-06T16:56:16.376Z,36.50
2018-05-06T16:58:43.861Z,36.00
2018-05-06T17:01:11.329Z,35.70
2018-05-06T17:03:38.832Z,36.00
2018-05-06T17:06:06.308Z,36.70
2018-05-06T17:08:33.760Z,36.80
2018-05-06T17:11:01.260Z,37.10
2018-05-06T17:13:29.644Z,37.90
2018-05-06T17:15:57.900Z,37.60
2018-05-06T17:18:25.387Z,37.50
2018-05-06T17:20:53.242Z,37.80
2018-05-06T17:23:20.773Z,37.90
2018-05-06T17:25:48.242Z,38.10
2018-05-06T17:28:15.728Z,39.00
2018-05-06T17:30:43.213Z,38.40
2018-05-06T17:33:10.676Z,39.40
2018-05-06T17:35:38.897Z,39.00
2018-05-06T17:38:06.908Z,38.90
2018-05-06T17:40:34.415Z,39.10
2018-05-06T17:43:01.868Z,40.00
2018-05-06T17:45:29.334Z,40.10
2018-05-06T17:47:56.871Z,40.50
2018-05-06T17:50:24.320Z,41.10
2018-05-06T17:52:51.783Z,40.50
2018-05-06T17:55:19.235Z,40.30
2018-05-06T17:57:47.482Z,39.90
2018-05-06T18:00:14.935Z,39.80
2018-05-06T18:02:43.222Z,40.30
2018-05-06T18:05:10.773Z,40.30
2018-05-06T18:07:38.329Z,40.90
2018-05-06T18:10:05.794Z,40.90
2018-05-06T18:12:34.040Z,41.70
2018-05-06T18:15:01.501Z,41.70
2018-05-06T18:17:29.071Z,42.20
2018-05-06T18:19:57.317Z,42.20
2018-05-06T18:22:24.775Z,42.20
2018-05-06T18:24:52.231Z,42.30
2018-05-06T18:27:19.716Z,42.40
2018-05-06T18:29:47.201Z,42.60
2018-05-06T18:32:14.675Z,43.20
2018-05-06T18:34:42.133Z,43.10
2018-05-06T18:37:09.587Z,43.70
2018-05-06T18:39:37.822Z,43.40
2018-05-06T18:42:05.337Z,43.30
2018-05-06T18:44:32.792Z,43.90
2018-05-06T18:47:00.350Z,44.00
2018-05-06T18:49:27.801Z,44.10
2018-05-06T18:51:55.261Z,44.70
2018-05-06T18:54:22.726Z,44.50
2018-05-06T18:56:50.982Z,45.10
2018-05-06T18:59:18.455Z,45.00
2018-05-06T19:01:45.922Z,44.90
2018-05-06T19:04:13.383Z,45.30
2018-05-06T19:06:40.849Z,45.30
2018-05-06T19:09:08.332Z,45.90
2018-05-06T19:11:35.893Z,46.50
2018-05-06T19:14:03.348Z,46.80
2018-05-06T19:16:30.804Z,46.40
2018-05-06T19:18:58.276Z,46.30
2018-05-06T19:21:26.506Z,47.50
2018-05-06T19:23:53.960Z,47.40
2018-05-06T19:26:22.188Z,47.30
2018-05-06T19:28:49.644Z,47.20
2018-05-06T19:31:17.872Z,48.50
2018-05-06T19:33:45.328Z,48.50
2018-05-06T19:36:12.848Z,48.40
2018-05-06T19:38:40.324Z,49.30
2018-05-06T19:41:07.783Z,49.20
2018-05-06T19:43:35.240Z,49.60
2018-05-06T19:46:03.505Z,50.30
2018-05-06T19:48:30.965Z,50.20
2018-05-06T19:50:58.468Z,50.50
2018-05-06T19:53:25.949Z,50.80
2018-05-06T19:55:53.408Z,51.20
2018-05-06T19:58:20.932Z,50.70
2018-05-06T20:00:48.400Z,51.30
2018-05-06T20:03:15.861Z,51.50
2018-05-06T20:05:43.322Z,52.30
2018-05-06T20:08:12.280Z,52.30
2018-05-06T20:10:39.789Z,52.30
2018-05-06T20:13:07.715Z,52.30
2018-05-06T20:15:35.988Z,52.50
2018-05-06T20:18:03.473Z,52.40
2018-05-06T20:20:30.924Z,52.60
2018-05-06T20:22:59.149Z,52.90
2018-05-06T20:25:26.613Z,52.80
2018-05-06T20:27:54.081Z,53.50
2018-05-06T20:30:21.540Z,54.10
2018-05-06T20:32:49.807Z,53.80
2018-05-06T20:35:17.368Z,53.80
2018-05-06T20:37:44.836Z,53.80
2018-05-06T20:40:12.299Z,53.90
2018-05-06T20:42:39.820Z,54.20
2018-05-06T20:45:07.312Z,54.40
2018-05-06T20:47:34.861Z,54.70
2018-05-06T20:50:02.390Z,55.50
2018-05-06T20:52:29.840Z,54.70
2018-05-06T20:54:57.331Z,55.00
2018-05-06T20:57:24.787Z,55.80
2018-05-06T20:59:52.244Z,56.20
2018-05-06T21:02:20.464Z,57.90
2018-05-06T21:04:47.920Z,57.70
2018-05-06T21:07:15.377Z,57.50
2018-05-06T21:09:42.861Z,57.90
2018-05-06T21:12:10.322Z,58.80
2018-05-06T21:14:37.780Z,59.00
2018-05-06T21:17:05.332Z,60.30
2018-05-06T21:19:32.787Z,60.40
2018-05-06T21:22:00.313Z,61.40
2018-05-06T21:24:27.800Z,61.70
2018-05-06T21:26:55.288Z,62.40
2018-05-06T21:29:22.752Z,63.20
2018-05-06T21:31:50.254Z,63.30
2018-05-06T21:34:17.733Z,64.00
2018-05-06T21:36:45.263Z,64.30
2018-05-06T21:39:12.663Z,64.40
2018-05-06T21:41:40.129Z,64.90
2018-05-06T21:44:07.592Z,64.80
2018-05-06T21:46:35.150Z,64.90
2018-05-06T21:49:02.628Z,65.60
2018-05-06T21:51:30.101Z,65.80
2018-05-06T21:53:57.557Z,67.00
2018-05-06T21:56:25.116Z,67.70
2018-05-06T21:58:52.592Z,68.50
2018-05-06T22:01:21.006Z,68.50
2018-05-06T22:03:48.468Z,69.10
2018-05-06T22:06:15.931Z,69.30
2018-05-06T22:08:44.147Z,70.80
2018-05-06T22:11:11.675Z,70.80
2018-05-06T22:13:39.165Z,71.30
2018-05-06T22:16:06.629Z,70.80
2018-05-06T22:18:34.124Z,72.90
2018-05-06T22:21:01.580Z,72.80
2018-05-06T22:23:29.108Z,73.60
2018-05-06T22:25:56.582Z,74.30
2018-05-06T22:28:24.040Z,74.90
2018-05-06T22:30:51.497Z,75.40
2018-05-06T22:33:19.049Z,75.60
2018-05-06T22:35:46.522Z,76.60
2018-05-06T22:38:13.997Z,77.00
2018-05-06T22:40:41.502Z,77.10
2018-05-06T22:43:08.960Z,77.80
2018-05-06T22:45:36.441Z,77.70
2018-05-06T22:48:03.937Z,77.80
2018-05-06T22:50:31.397Z,79.10
2018-05-06T22:52:58.859Z,79.30
2018-05-06T22:55:27.089Z,79.40
2018-05-06T22:57:54.549Z,79.40
2018-05-06T23:00:22.046Z,80.40
2018-05-06T23:02:49.559Z,81.00
2018-05-06T23:05:17.016Z,81.60
2018-05-06T23:07:44.479Z,82.00
2018-05-06T23:10:12.733Z,83.20
2018-05-06T23:12:40.200Z,83.20
2018-05-06T23:15:07.699Z,83.80
2018-05-06T23:17:35.173Z,83.90
2018-05-06T23:20:02.660Z,83.90
2018-05-06T23:22:30.122Z,82.80
2018-05-06T23:24:57.626Z,82.50
2018-05-06T23:27:25.089Z,83.30
2018-05-06T23:29:52.549Z,83.90
2018-05-06T23:32:20.078Z,84.40
2018-05-06T23:34:47.557Z,85.10
2018-05-06T23:37:15.015Z,86.10
2018-05-06T23:39:42.484Z,86.00
2018-05-06T23:42:10.700Z,87.50
2018-05-06T23:44:38.218Z,87.40
2018-05-06T23:47:05.673Z,87.60
2018-05-06T23:49:33.124Z,88.50
2018-05-06T23:52:01.391Z,89.90
2018-05-06T23:54:28.882Z,89.80
2018-05-06T23:56:56.328Z,89.00
2018-05-06T23:59:23.833Z,89.20
